Flight Track Log - Related Links

Times and Time Zones

All times are in EDT time to prevent confusion due to time zone crossing. See the ASQ5036 flight status page for this flight to view local times or setup timezone preferences in your user account.

Time Position Orientation Groundspeed Altitude Reporting Facility
EDT Latitude Longitude Course Direction KTS MPH feet Rate Location/Type
Fri 08:04:50 PM 33.6333 -84.4667 248° West 165 190 2,200  Level Atlanta TRACON
Fri 08:05:50 PM 33.6167 -84.5167 248° West 237 273 3,600 2,053 Climbing Atlanta TRACON
Fri 08:06:44 PM 33.5833 -84.5833 239° Southwest 252 290 6,100 2,842 Climbing Atlanta TRACON
Fri 08:07:44 PM 33.5333 -84.6333 220° Southwest 264 304 9,000 2,000 Climbing Atlanta TRACON
Fri 08:08:44 PM 33.4500 -84.6500 189° South 303 349 10,100 500 Climbing Atlanta TRACON
Fri 08:09:44 PM 33.3667 -84.6833 198° South 329 379 10,000 -50 Descending Atlanta TRACON
Fri 08:10:44 PM 33.2667 -84.7000 188° South 326 375 10,000 48 Level Atlanta TRACON
Fri 08:11:50 PM 33.1833 -84.7333 199° South 319 367 10,100  Climbing Atlanta TRACON
Fri 08:12:50 PM 33.1000 -84.7667 199° South 318 366 10,000 -105 Descending Atlanta TRACON
Fri 08:13:44 PM 33.0167 -84.7833 190° South 319 367 9,900 -100 Descending Atlanta TRACON
Fri 08:14:50 PM 32.9167 -84.8167 196° South 320 368 9,800 -619 Descending Atlanta TRACON
Fri 08:15:50 PM 32.8500 -84.8167 180° South 274 315 8,600 -1,500 Descending Atlanta TRACON
Fri 08:16:50 PM 32.7667 -84.8167 180° South 260 299 6,800 -1,842 Descending Atlanta TRACON
Fri 08:17:44 PM 32.7000 -84.8333 192° South 254 292 5,100 -1,421 Descending Atlanta TRACON
Fri 08:18:44 PM 32.6500 -84.8333 180° South 215 247 4,100 -857 Descending Atlanta TRACON
Fri 08:19:50 PM 32.5833 -84.8500 192° South 160 184 3,300 -1,150 Descending Atlanta TRACON
Fri 08:20:44 PM 32.5667 -84.8667 220° Southwest 154 177 1,800 -1,200 Descending Atlanta TRACON
Fri 08:21:50 PM 32.5333 -84.9000 220° Southwest 144 166 900 -818 Descending Atlanta TRACON
Fri 08:23:00 PM 32.5000 -84.9333 212° Southwest  Level FlightAware Approximate
Fri 08:30:00 PM 32.5163 -84.9389 212° Southwest  Level Estimated
Fri 08:31:00 PM 32.5163 -84.9389 212° Southwest  Level Estimated

Login

Don't have an account? Register now (free) for customized features, flight alerts, and more!